createdAt,value
2024-04-24T00:01:29.596Z,43.94
2024-04-24T00:03:20.614Z,44.06
2024-04-24T00:05:12.411Z,44.22
2024-04-24T00:07:03.613Z,44.29
2024-04-24T00:08:54.706Z,44.59
2024-04-24T00:10:45.802Z,44.57
2024-04-24T00:12:36.651Z,44.51
2024-04-24T00:14:28.514Z,44.44
2024-04-24T00:16:20.116Z,44.28
2024-04-24T00:18:12.894Z,44.31
2024-04-24T00:20:07.067Z,44.38
2024-04-24T00:22:06.190Z,44.53
2024-04-24T00:23:57.312Z,44.62
2024-04-24T00:25:49.171Z,44.97
2024-04-24T00:27:41.380Z,44.69
2024-04-24T00:29:32.486Z,44.52
2024-04-24T00:31:23.640Z,44.72
2024-04-24T00:33:14.784Z,44.69
2024-04-24T00:35:06.075Z,44.84
2024-04-24T00:36:57.422Z,45.17
2024-04-24T00:38:48.505Z,45.07
2024-04-24T00:40:39.959Z,44.91
2024-04-24T00:42:31.062Z,44.93
2024-04-24T00:44:22.027Z,45.27
2024-04-24T00:46:14.594Z,45.43
2024-04-24T00:48:06.067Z,45.21
2024-04-24T00:49:57.544Z,45.25
2024-04-24T00:51:49.224Z,45.33
2024-04-24T00:53:40.484Z,45.39
2024-04-24T00:55:32.719Z,45.59
2024-04-24T00:57:23.481Z,45.54
2024-04-24T00:59:14.899Z,45.72
2024-04-24T01:01:06.618Z,45.81
2024-04-24T01:02:58.065Z,45.77
2024-04-24T01:04:49.240Z,45.68
2024-04-24T01:06:40.284Z,45.67
2024-04-24T01:08:31.666Z,45.73
2024-04-24T01:10:22.857Z,45.78
2024-04-24T01:12:13.920Z,46.00
2024-04-24T01:14:05.248Z,46.11
2024-04-24T01:16:29.640Z,45.95
2024-04-24T01:18:21.940Z,45.69
2024-04-24T01:20:17.713Z,45.84
2024-04-24T01:22:16.781Z,45.71
2024-04-24T01:24:32.545Z,46.06
2024-04-24T01:26:43.279Z,45.72
2024-04-24T01:28:34.202Z,45.79
2024-04-24T01:30:25.277Z,45.77
2024-04-24T01:32:16.176Z,46.00
2024-04-24T01:34:07.459Z,46.07
2024-04-24T01:38:15.443Z,46.06
2024-04-24T01:40:07.695Z,46.35
2024-04-24T01:41:58.703Z,46.50
2024-04-24T01:43:49.714Z,46.47
2024-04-24T01:45:41.424Z,46.43
2024-04-24T01:47:32.162Z,46.66
2024-04-24T01:49:23.182Z,46.48
2024-04-24T01:51:14.203Z,46.63
2024-04-24T01:53:05.465Z,46.73
2024-04-24T01:54:57.155Z,46.88
2024-04-24T01:56:48.195Z,46.74
2024-04-24T01:58:39.512Z,46.92
2024-04-24T02:00:30.782Z,46.70
2024-04-24T02:02:22.238Z,46.61
2024-04-24T02:04:13.332Z,46.66
2024-04-24T02:06:24.698Z,46.55
2024-04-24T02:08:16.005Z,46.60
2024-04-24T02:10:07.622Z,46.49
2024-04-24T02:12:06.769Z,46.51
2024-04-24T02:14:05.367Z,46.59
2024-04-24T02:15:56.717Z,46.65
2024-04-24T02:17:48.178Z,46.41
2024-04-24T02:19:41.973Z,46.57
2024-04-24T02:21:33.390Z,46.44
2024-04-24T02:23:32.255Z,46.64
2024-04-24T02:25:35.711Z,46.51
2024-04-24T02:27:27.060Z,46.57
2024-04-24T02:29:18.552Z,47.05
2024-04-24T02:31:10.220Z,47.01
2024-04-24T02:33:02.354Z,46.89
2024-04-24T02:34:53.383Z,46.46
2024-04-24T02:36:44.716Z,47.13
2024-04-24T02:38:35.772Z,47.16
2024-04-24T02:40:26.658Z,47.06
2024-04-24T02:42:18.043Z,46.82
2024-04-24T02:44:09.228Z,47.21
2024-04-24T02:46:00.440Z,46.95
2024-04-24T02:47:51.759Z,46.97
2024-04-24T02:49:42.994Z,47.08
2024-04-24T02:51:34.275Z,46.88
2024-04-24T02:53:25.515Z,47.11
2024-04-24T02:55:16.778Z,47.48
2024-04-24T02:57:08.060Z,47.62
2024-04-24T02:58:59.851Z,47.61
2024-04-24T03:00:51.430Z,47.75
2024-04-24T03:02:42.984Z,47.49
2024-04-24T03:04:34.267Z,47.62
2024-04-24T03:06:25.440Z,47.46
2024-04-24T03:08:16.825Z,47.62
2024-04-24T03:10:08.130Z,47.56
2024-04-24T03:11:59.343Z,47.46
2024-04-24T03:13:51.084Z,47.36
2024-04-24T03:15:42.549Z,47.50
2024-04-24T03:17:34.375Z,47.32
2024-04-24T03:19:26.835Z,47.27
2024-04-24T03:21:22.012Z,47.23
2024-04-24T03:23:13.759Z,47.26
2024-04-24T03:25:05.379Z,47.36
2024-04-24T03:26:56.483Z,47.40
2024-04-24T03:28:47.688Z,47.41
2024-04-24T03:30:38.768Z,47.31
2024-04-24T03:32:30.002Z,47.22
2024-04-24T03:34:23.817Z,47.13
2024-04-24T03:36:15.201Z,47.77
2024-04-24T03:38:06.532Z,47.68
2024-04-24T03:39:57.792Z,47.94
2024-04-24T03:41:49.133Z,47.83
2024-04-24T03:43:40.118Z,48.06
2024-04-24T03:45:31.178Z,48.67
2024-04-24T03:47:22.576Z,48.99
2024-04-24T03:49:13.897Z,49.14
2024-04-24T03:51:05.112Z,49.32
2024-04-24T03:52:56.302Z,49.56
2024-04-24T03:54:47.827Z,49.63
2024-04-24T03:56:39.088Z,49.79
2024-04-24T03:58:30.217Z,49.94
2024-04-24T04:00:21.463Z,50.24
2024-04-24T04:02:12.896Z,50.49
2024-04-24T04:04:04.357Z,50.58
2024-04-24T04:05:55.581Z,50.70
2024-04-24T04:07:46.956Z,50.24
2024-04-24T04:09:38.068Z,50.14
2024-04-24T04:11:29.326Z,49.90
2024-04-24T04:13:20.839Z,49.75
2024-04-24T04:15:14.281Z,49.74
2024-04-24T04:17:05.875Z,49.78
2024-04-24T04:18:57.927Z,50.30
2024-04-24T04:20:49.035Z,50.24
2024-04-24T04:22:42.941Z,50.34
2024-04-24T04:24:34.534Z,50.74
2024-04-24T04:26:25.884Z,50.77
2024-04-24T04:28:17.348Z,50.76
2024-04-24T04:30:09.034Z,50.86
2024-04-24T04:32:00.649Z,50.86
2024-04-24T04:33:52.817Z,51.06
2024-04-24T04:35:44.170Z,51.29
2024-04-24T04:37:38.186Z,51.49
2024-04-24T04:39:30.509Z,51.53
2024-04-24T04:41:21.803Z,51.41
2024-04-24T04:43:13.075Z,51.15
2024-04-24T04:45:04.596Z,51.04
2024-04-24T04:46:55.567Z,50.94
2024-04-24T04:50:38.312Z,51.21
2024-04-24T04:52:30.967Z,51.12
2024-04-24T04:54:22.626Z,50.63
2024-04-24T04:56:13.654Z,50.60
2024-04-24T04:58:05.100Z,50.32
2024-04-24T04:59:56.421Z,50.47
2024-04-24T05:01:47.636Z,50.61
2024-04-24T05:03:38.850Z,50.44
2024-04-24T05:05:30.101Z,50.30
2024-04-24T05:07:21.428Z,50.35
2024-04-24T05:09:12.932Z,50.55
2024-04-24T05:11:04.692Z,50.58
2024-04-24T05:12:56.212Z,50.69
2024-04-24T05:14:51.740Z,51.05
2024-04-24T05:16:43.032Z,50.85
2024-04-24T05:18:34.403Z,50.85
2024-04-24T05:20:25.598Z,50.99
2024-04-24T05:22:16.790Z,51.12
2024-04-24T05:24:08.151Z,50.79
2024-04-24T05:26:19.408Z,50.55
2024-04-24T05:28:29.981Z,50.73
2024-04-24T05:30:21.179Z,50.57
2024-04-24T05:32:12.503Z,50.23
2024-04-24T05:34:04.793Z,49.46
2024-04-24T05:35:56.161Z,49.05
2024-04-24T05:37:47.569Z,48.74
2024-04-24T05:39:39.119Z,48.76
2024-04-24T05:41:30.427Z,48.80
2024-04-24T05:43:21.922Z,48.55
2024-04-24T05:45:13.711Z,48.25
2024-04-24T05:47:05.092Z,48.24
2024-04-24T05:48:56.246Z,47.89
2024-04-24T05:50:47.454Z,47.20
2024-04-24T05:52:38.903Z,47.42
2024-04-24T05:54:30.129Z,47.64
2024-04-24T05:56:21.548Z,46.92
2024-04-24T05:58:12.942Z,46.99
2024-04-24T06:00:08.300Z,46.45
2024-04-24T06:01:59.182Z,46.38
2024-04-24T06:03:50.419Z,45.76
2024-04-24T06:05:41.471Z,45.28
2024-04-24T06:07:32.673Z,45.04
2024-04-24T06:09:23.959Z,44.75
2024-04-24T06:11:15.460Z,45.43
2024-04-24T06:13:06.873Z,44.78
2024-04-24T06:14:57.958Z,44.32
2024-04-24T06:16:49.054Z,44.63
2024-04-24T06:18:40.357Z,43.78
2024-04-24T06:20:31.750Z,43.57
2024-04-24T06:22:22.690Z,44.05
2024-04-24T06:24:15.353Z,43.31
2024-04-24T06:26:06.150Z,42.65
2024-04-24T06:27:57.152Z,43.62
2024-04-24T06:29:48.613Z,43.71
2024-04-24T06:31:39.923Z,43.67
2024-04-24T06:33:31.355Z,42.79
2024-04-24T06:35:25.866Z,42.78
2024-04-24T06:37:18.082Z,42.18
2024-04-24T06:39:09.217Z,41.56
2024-04-24T06:41:00.056Z,41.91
2024-04-24T06:42:51.700Z,40.59
2024-04-24T06:44:42.877Z,41.86
2024-04-24T06:46:34.116Z,41.82
2024-04-24T06:48:25.320Z,41.48
2024-04-24T06:50:16.573Z,41.42
2024-04-24T06:52:08.175Z,41.38
2024-04-24T06:54:01.008Z,41.95
2024-04-24T06:55:53.436Z,41.60
2024-04-24T06:57:44.474Z,41.10
2024-04-24T06:59:35.739Z,41.26
2024-04-24T07:03:27.969Z,41.22
2024-04-24T07:05:19.275Z,39.96
2024-04-24T07:07:10.437Z,40.52
2024-04-24T07:09:01.234Z,39.71
2024-04-24T07:10:52.588Z,40.11
2024-04-24T07:12:46.664Z,38.87
2024-04-24T07:14:39.889Z,39.65
2024-04-24T07:16:30.930Z,38.67
2024-04-24T07:18:22.264Z,39.70
2024-04-24T07:20:13.660Z,39.50
2024-04-24T07:22:05.028Z,39.16
2024-04-24T07:23:56.705Z,38.97
2024-04-24T07:25:51.159Z,40.22
2024-04-24T07:27:42.369Z,39.69
2024-04-24T07:29:33.828Z,38.66
2024-04-24T07:31:25.176Z,38.10
2024-04-24T07:33:16.723Z,39.58
2024-04-24T07:35:09.694Z,38.87
2024-04-24T07:37:01.100Z,39.28
2024-04-24T07:38:52.269Z,39.28
2024-04-24T07:40:43.923Z,39.33
2024-04-24T07:42:36.526Z,39.21
2024-04-24T07:44:27.884Z,38.25
2024-04-24T07:46:19.216Z,38.70
2024-04-24T07:48:10.782Z,40.32
2024-04-24T08:00:00.774Z,39.49
2024-04-24T08:01:52.257Z,38.39
2024-04-24T08:03:43.857Z,38.66
2024-04-24T08:05:36.268Z,38.96
2024-04-24T08:07:27.884Z,38.25
2024-04-24T08:09:19.649Z,38.13
2024-04-24T08:11:11.351Z,38.55
2024-04-24T08:13:02.934Z,38.58
2024-04-24T08:14:53.910Z,36.99
2024-04-24T08:16:44.752Z,37.58
2024-04-24T08:18:36.078Z,37.64
2024-04-24T08:20:27.354Z,37.98
2024-04-24T08:22:19.743Z,37.89
2024-04-24T08:24:11.303Z,37.64
2024-04-24T08:26:03.888Z,37.71
2024-04-24T08:27:55.298Z,37.63
2024-04-24T08:29:46.554Z,36.59
2024-04-24T08:31:37.832Z,37.05
2024-04-24T08:33:33.424Z,35.49
2024-04-24T08:35:24.979Z,35.93
2024-04-24T08:37:16.652Z,35.92
2024-04-24T08:39:18.694Z,35.32
2024-04-24T08:41:13.496Z,35.48
2024-04-24T08:43:04.797Z,35.37
2024-04-24T08:44:57.035Z,34.15
2024-04-24T08:46:48.504Z,34.79
2024-04-24T08:48:40.996Z,34.81
2024-04-24T08:50:32.547Z,34.14
2024-04-24T08:52:25.216Z,33.83
2024-04-24T08:54:19.215Z,33.82
2024-04-24T08:56:13.749Z,32.96
2024-04-24T08:58:06.123Z,34.05
2024-04-24T09:00:00.817Z,33.86
2024-04-24T09:01:59.344Z,32.20
2024-04-24T09:03:54.413Z,31.72
2024-04-24T09:05:46.755Z,33.57
2024-04-24T09:07:41.542Z,33.48
2024-04-24T09:09:33.249Z,32.83
2024-04-24T09:11:24.877Z,33.11
2024-04-24T09:13:16.214Z,31.75
2024-04-24T09:15:07.264Z,32.57
2024-04-24T09:16:58.553Z,32.41
2024-04-24T09:19:04.089Z,32.17
2024-04-24T09:20:56.340Z,31.86
2024-04-24T09:22:47.546Z,32.30
2024-04-24T09:24:38.490Z,31.11
2024-04-24T09:26:29.946Z,31.29
2024-04-24T09:28:21.123Z,31.08
2024-04-24T09:30:12.500Z,30.65
2024-04-24T09:32:04.837Z,30.22
2024-04-24T09:33:56.626Z,31.17
2024-04-24T09:35:48.184Z,31.36
2024-04-24T09:37:39.528Z,31.48
2024-04-24T09:39:33.484Z,30.55
2024-04-24T09:41:25.355Z,30.44
2024-04-24T09:43:18.819Z,30.34
2024-04-24T09:45:12.201Z,29.92
2024-04-24T09:47:03.690Z,30.03
2024-04-24T09:48:54.980Z,29.74
2024-04-24T09:50:46.848Z,29.96
2024-04-24T09:52:38.384Z,29.80
2024-04-24T09:54:29.628Z,29.51
2024-04-24T09:56:23.285Z,29.32
2024-04-24T09:58:15.999Z,28.79
2024-04-24T10:00:09.187Z,29.76
2024-04-24T10:02:08.113Z,29.49
2024-04-24T10:04:02.066Z,29.72
2024-04-24T10:05:57.340Z,29.22
2024-04-24T10:08:02.521Z,29.36
2024-04-24T10:09:54.253Z,29.70
2024-04-24T10:11:50.566Z,29.77
2024-04-24T10:13:44.741Z,30.14
2024-04-24T10:15:43.847Z,29.45
2024-04-24T10:17:37.022Z,29.52
2024-04-24T10:19:28.835Z,29.68
2024-04-24T10:21:20.818Z,29.17
2024-04-24T10:23:12.976Z,27.52
2024-04-24T10:25:04.891Z,28.49
2024-04-24T10:36:37.372Z,29.08
2024-04-24T10:38:32.790Z,27.97
2024-04-24T10:40:31.039Z,28.06
2024-04-24T10:42:22.943Z,27.96
2024-04-24T10:44:13.963Z,28.40
2024-04-24T10:46:06.998Z,28.69
2024-04-24T10:47:58.993Z,28.89
2024-04-24T10:49:57.975Z,28.77
2024-04-24T10:51:49.708Z,27.37
2024-04-24T10:53:55.875Z,27.41
2024-04-24T10:55:56.741Z,28.39
2024-04-24T10:57:52.649Z,28.21
2024-04-24T10:59:46.490Z,28.25
2024-04-24T11:01:47.701Z,27.87
2024-04-24T11:03:44.673Z,28.71
2024-04-24T11:05:36.047Z,28.66
2024-04-24T11:07:36.449Z,28.97
2024-04-24T11:09:29.707Z,28.44
2024-04-24T11:11:22.509Z,28.25
2024-04-24T11:13:16.748Z,28.92
2024-04-24T11:15:20.525Z,28.17
2024-04-24T11:17:11.614Z,29.07
2024-04-24T11:19:02.946Z,28.50
2024-04-24T11:20:54.595Z,29.44
2024-04-24T11:22:46.352Z,29.41
2024-04-24T11:24:39.889Z,29.61
2024-04-24T11:26:34.234Z,29.59
2024-04-24T11:28:26.852Z,28.21
2024-04-24T11:30:19.518Z,27.58
2024-04-24T11:32:10.547Z,28.99
2024-04-24T11:34:02.345Z,28.05
2024-04-24T11:35:53.713Z,28.25
2024-04-24T11:39:22.975Z,29.57
2024-04-24T11:41:14.265Z,28.93
2024-04-24T11:43:04.374Z,28.31
2024-04-24T11:44:54.543Z,28.77
2024-04-24T11:46:47.389Z,30.06
2024-04-24T11:48:46.618Z,28.91
2024-04-24T11:50:40.922Z,29.31
2024-04-24T11:52:37.756Z,28.97
2024-04-24T11:54:28.566Z,28.85
2024-04-24T11:56:24.128Z,30.08
2024-04-24T11:58:14.650Z,29.89
2024-04-24T12:00:05.945Z,28.94
2024-04-24T12:01:56.421Z,29.20
2024-04-24T12:03:47.259Z,27.74
2024-04-24T12:05:37.296Z,27.30
2024-04-24T12:07:29.083Z,27.94
2024-04-24T12:09:19.222Z,28.08
2024-04-24T12:11:09.871Z,28.30
2024-04-24T12:13:00.000Z,28.15
2024-04-24T12:14:51.243Z,28.14
2024-04-24T12:16:44.516Z,27.26
2024-04-24T12:18:34.651Z,27.69
2024-04-24T12:20:24.589Z,27.69
2024-04-24T12:22:14.498Z,27.36
2024-04-24T12:24:04.605Z,27.81
2024-04-24T12:26:16.775Z,27.86
2024-04-24T12:28:08.178Z,27.79
2024-04-24T12:30:01.354Z,27.80
2024-04-24T12:31:52.616Z,26.70
2024-04-24T12:33:43.846Z,27.31
2024-04-24T12:35:35.441Z,26.95
2024-04-24T12:37:32.159Z,27.23
2024-04-24T12:39:23.604Z,28.44
2024-04-24T12:41:14.924Z,27.84
2024-04-24T12:43:06.197Z,27.96
2024-04-24T12:44:57.514Z,28.85
2024-04-24T12:46:49.265Z,28.11
2024-04-24T12:57:59.625Z,28.24
2024-04-24T12:59:51.186Z,28.46
2024-04-24T13:01:42.645Z,28.37
2024-04-24T13:03:34.444Z,28.22
2024-04-24T13:05:25.916Z,28.32
2024-04-24T13:07:17.187Z,28.21
2024-04-24T13:09:09.314Z,28.64
2024-04-24T13:11:00.700Z,28.70
2024-04-24T13:12:51.937Z,27.86
2024-04-24T13:14:43.402Z,28.06
2024-04-24T13:16:35.100Z,28.21
2024-04-24T13:18:28.987Z,29.07
2024-04-24T13:20:23.749Z,29.01
2024-04-24T13:22:15.151Z,28.74
2024-04-24T13:24:08.565Z,28.63
2024-04-24T13:26:00.535Z,27.77
2024-04-24T13:27:52.268Z,27.70
2024-04-24T13:29:43.191Z,27.78
2024-04-24T13:31:34.723Z,28.63
2024-04-24T13:33:25.796Z,29.14
2024-04-24T13:35:17.451Z,28.15
2024-04-24T13:37:09.074Z,28.42
2024-04-24T13:39:00.390Z,28.64
2024-04-24T13:40:51.578Z,28.59
2024-04-24T13:42:42.714Z,28.54
2024-04-24T13:44:34.037Z,28.30
2024-04-24T13:46:25.303Z,28.90
2024-04-24T13:48:16.683Z,28.39
2024-04-24T13:50:12.742Z,28.70
2024-04-24T13:52:03.988Z,28.75
2024-04-24T13:53:55.174Z,28.73
2024-04-24T13:55:49.907Z,27.80
2024-04-24T13:57:41.496Z,28.39
2024-04-24T13:59:33.843Z,27.59
2024-04-24T14:01:25.095Z,27.54
2024-04-24T14:03:17.252Z,27.51
2024-04-24T14:05:11.812Z,27.88
2024-04-24T14:07:03.184Z,28.69
2024-04-24T14:08:54.596Z,28.17
2024-04-24T14:10:46.056Z,28.87
2024-04-24T14:12:37.277Z,27.29
2024-04-24T14:14:30.288Z,27.57
2024-04-24T14:16:21.462Z,28.80
2024-04-24T14:18:12.503Z,28.32
2024-04-24T14:20:04.801Z,28.29
2024-04-24T14:21:56.384Z,27.08
2024-04-24T14:23:47.609Z,27.87
2024-04-24T14:25:38.983Z,28.62
2024-04-24T14:27:30.383Z,28.00
2024-04-24T14:29:21.938Z,28.20
2024-04-24T14:31:13.563Z,28.98
2024-04-24T14:33:04.916Z,28.49
2024-04-24T14:34:56.458Z,28.68
2024-04-24T14:36:47.677Z,28.83
2024-04-24T14:38:38.720Z,28.43
2024-04-24T14:40:30.114Z,28.73
2024-04-24T14:42:22.198Z,28.82
2024-04-24T14:44:13.447Z,28.40
2024-04-24T14:46:04.696Z,28.02
2024-04-24T14:47:56.264Z,27.83
2024-04-24T14:49:47.750Z,28.69
2024-04-24T14:51:38.967Z,28.83
2024-04-24T14:53:30.300Z,28.76
2024-04-24T14:55:21.312Z,28.45
2024-04-24T14:57:12.567Z,28.48
2024-04-24T14:59:04.050Z,27.97
2024-04-24T15:00:57.316Z,28.27
2024-04-24T15:02:49.079Z,27.90
2024-04-24T15:04:41.714Z,28.01
2024-04-24T15:06:36.075Z,28.86
2024-04-24T15:08:27.622Z,28.66
2024-04-24T15:10:18.716Z,28.45
2024-04-24T15:12:10.312Z,28.79
2024-04-24T15:14:01.736Z,28.92
2024-04-24T15:15:53.182Z,29.12
2024-04-24T15:17:44.555Z,29.08
2024-04-24T15:19:35.794Z,29.69
2024-04-24T15:21:26.767Z,29.29
2024-04-24T15:23:18.147Z,30.44
2024-04-24T15:25:09.419Z,30.17
2024-04-24T15:27:00.674Z,30.44
2024-04-24T15:28:51.982Z,30.84
2024-04-24T15:30:43.266Z,30.65
2024-04-24T15:32:34.892Z,30.41
2024-04-24T15:34:26.661Z,30.27
2024-04-24T15:36:17.813Z,30.14
2024-04-24T15:38:10.826Z,30.55
2024-04-24T15:40:02.613Z,30.43
2024-04-24T15:41:56.188Z,30.54
2024-04-24T15:43:47.598Z,30.88
2024-04-24T15:45:41.469Z,30.69
2024-04-24T15:47:33.940Z,30.80
2024-04-24T15:49:24.986Z,31.10
2024-04-24T15:51:16.201Z,31.28
2024-04-24T15:53:07.518Z,31.16
2024-04-24T15:54:59.867Z,30.84
2024-04-24T15:56:51.398Z,30.81
2024-04-24T15:58:43.091Z,31.10
2024-04-24T16:00:34.484Z,30.91
2024-04-24T16:02:25.843Z,31.15
2024-04-24T16:04:16.719Z,31.10
2024-04-24T16:06:07.828Z,31.44
2024-04-24T16:07:58.962Z,31.60
2024-04-24T16:09:50.035Z,31.25
2024-04-24T16:11:41.696Z,31.41
2024-04-24T16:13:32.768Z,31.29
2024-04-24T16:15:24.087Z,30.91
2024-04-24T16:17:15.287Z,31.01
2024-04-24T16:19:07.894Z,31.03
2024-04-24T16:21:00.591Z,31.34
2024-04-24T16:22:53.190Z,31.15
2024-04-24T16:24:44.287Z,31.34
2024-04-24T16:26:35.070Z,31.66
2024-04-24T16:28:26.174Z,31.07
2024-04-24T16:30:17.680Z,30.36
2024-04-24T16:32:08.806Z,30.82
2024-04-24T16:34:00.195Z,31.75
2024-04-24T16:35:52.865Z,32.10
2024-04-24T16:37:44.648Z,32.11
2024-04-24T16:39:35.759Z,32.18
2024-04-24T16:41:27.006Z,31.22
2024-04-24T16:43:18.129Z,31.14
2024-04-24T16:45:10.536Z,32.10
2024-04-24T16:47:01.706Z,32.28
2024-04-24T16:48:52.952Z,32.53
2024-04-24T16:50:44.237Z,31.59
2024-04-24T16:52:36.080Z,32.18
2024-04-24T16:54:27.473Z,32.06
2024-04-24T16:56:20.198Z,32.31
2024-04-24T16:58:11.476Z,32.42
2024-04-24T17:00:02.682Z,32.81
2024-04-24T17:01:53.530Z,32.59
2024-04-24T17:03:44.838Z,32.26
2024-04-24T17:05:35.592Z,32.62
2024-04-24T17:07:26.836Z,32.50
2024-04-24T17:09:18.563Z,32.09
2024-04-24T17:11:09.765Z,32.53
2024-04-24T17:13:00.770Z,32.59
2024-04-24T17:14:52.101Z,33.92
2024-04-24T17:16:43.129Z,33.63
2024-04-24T17:18:34.550Z,33.75
2024-04-24T17:20:25.900Z,33.26
2024-04-24T17:22:16.648Z,33.08
2024-04-24T17:24:07.695Z,33.80
2024-04-24T17:26:01.025Z,33.29
2024-04-24T17:27:52.317Z,33.35
2024-04-24T17:29:43.609Z,32.64
2024-04-24T17:31:34.935Z,32.36
2024-04-24T17:33:25.949Z,32.37
2024-04-24T17:35:16.955Z,32.58
2024-04-24T17:37:08.953Z,32.92
2024-04-24T17:39:00.727Z,32.77
2024-04-24T17:40:51.556Z,32.96
2024-04-24T17:42:42.675Z,33.69
2024-04-24T17:44:34.175Z,33.32
2024-04-24T17:46:25.424Z,33.63
2024-04-24T17:48:16.769Z,33.64
2024-04-24T17:50:08.223Z,33.56
2024-04-24T17:52:00.297Z,33.70
2024-04-24T17:53:51.524Z,33.97
2024-04-24T17:55:47.461Z,34.81
2024-04-24T17:59:46.766Z,35.48
2024-04-24T18:01:37.720Z,35.47
2024-04-24T18:03:30.621Z,35.88
2024-04-24T18:05:23.759Z,36.23
2024-04-24T18:07:17.990Z,36.21
2024-04-24T18:09:09.395Z,36.45
2024-04-24T18:11:00.841Z,36.73
2024-04-24T18:12:52.901Z,36.90
2024-04-24T18:14:43.768Z,37.41
2024-04-24T18:16:35.135Z,37.87
2024-04-24T18:18:26.235Z,38.20
2024-04-24T18:20:17.864Z,38.52
2024-04-24T18:22:09.519Z,38.55
2024-04-24T18:24:01.375Z,38.93
2024-04-24T18:25:53.250Z,38.97
2024-04-24T18:27:45.197Z,39.08
2024-04-24T18:29:36.814Z,39.16
2024-04-24T18:31:32.821Z,39.23
2024-04-24T18:33:24.324Z,39.30
2024-04-24T18:35:17.413Z,39.23
2024-04-24T18:37:08.959Z,38.95
2024-04-24T18:39:00.462Z,39.83
2024-04-24T18:40:52.222Z,39.41
2024-04-24T18:42:43.836Z,39.40
2024-04-24T18:44:35.243Z,39.54
2024-04-24T18:46:26.397Z,39.56
2024-04-24T18:48:17.828Z,40.11
2024-04-24T18:50:09.642Z,39.86
2024-04-24T18:52:01.113Z,40.04
2024-04-24T18:53:52.587Z,40.18
2024-04-24T18:55:44.835Z,40.37
2024-04-24T18:57:39.851Z,40.69
2024-04-24T18:59:31.438Z,40.98
2024-04-24T19:01:23.812Z,41.11
2024-04-24T19:03:15.230Z,41.48
2024-04-24T19:05:06.499Z,41.75
2024-04-24T19:06:57.882Z,41.90
2024-04-24T19:08:50.470Z,42.10
2024-04-24T19:10:41.729Z,42.37
2024-04-24T19:12:32.949Z,42.38
2024-04-24T19:14:24.270Z,42.59
2024-04-24T19:16:17.096Z,42.75
2024-04-24T19:18:10.168Z,42.90
2024-04-24T19:20:01.975Z,42.76
2024-04-24T19:21:53.233Z,42.93
2024-04-24T19:23:44.914Z,43.17
2024-04-24T19:25:36.654Z,42.95
2024-04-24T19:27:34.979Z,43.41
2024-04-24T19:29:32.380Z,43.47
2024-04-24T19:31:31.343Z,43.69
2024-04-24T19:33:25.364Z,43.78
2024-04-24T19:35:16.760Z,43.71
2024-04-24T19:37:08.126Z,43.76
2024-04-24T19:38:59.878Z,43.81
2024-04-24T19:40:51.403Z,44.01
2024-04-24T19:42:45.064Z,44.14
2024-04-24T19:44:36.325Z,43.91
2024-04-24T19:46:27.706Z,44.05
2024-04-24T19:48:19.455Z,44.67
2024-04-24T19:50:10.839Z,44.92
2024-04-24T19:52:03.055Z,44.95
2024-04-24T19:53:54.961Z,45.15
2024-04-24T19:55:46.240Z,45.83
2024-04-24T19:57:37.788Z,45.82
2024-04-24T19:59:29.444Z,45.94
2024-04-24T20:01:21.079Z,45.92
2024-04-24T20:03:13.894Z,46.75
2024-04-24T20:05:09.151Z,46.93
2024-04-24T20:07:03.314Z,46.91
2024-04-24T20:08:54.547Z,47.07
2024-04-24T20:10:45.880Z,46.90
2024-04-24T20:12:37.262Z,47.17
2024-04-24T20:14:28.730Z,47.56
2024-04-24T20:16:20.095Z,47.78
2024-04-24T20:18:12.043Z,48.06
2024-04-24T20:20:04.128Z,48.73
2024-04-24T20:21:56.281Z,48.33
2024-04-24T20:23:47.786Z,48.47
2024-04-24T20:25:39.112Z,48.64
2024-04-24T20:27:30.465Z,48.45
2024-04-24T20:29:22.046Z,48.68
2024-04-24T20:31:26.590Z,48.61
2024-04-24T20:33:17.912Z,48.83
2024-04-24T20:35:09.698Z,48.98
2024-04-24T20:37:01.092Z,49.08
2024-04-24T20:38:54.111Z,49.48
2024-04-24T20:40:45.576Z,49.76
2024-04-24T20:42:36.720Z,49.84
2024-04-24T20:44:27.911Z,49.65
2024-04-24T20:46:19.125Z,49.59
2024-04-24T20:48:10.652Z,50.08
2024-04-24T20:50:01.872Z,49.90
2024-04-24T20:51:53.211Z,49.69
2024-04-24T20:53:44.668Z,49.75
2024-04-24T20:55:36.806Z,49.39
2024-04-24T20:57:29.447Z,49.21
2024-04-24T20:59:21.439Z,49.46
2024-04-24T21:01:13.636Z,49.13
2024-04-24T21:03:05.417Z,49.35
2024-04-24T21:04:57.021Z,49.56
2024-04-24T21:06:49.919Z,49.41
2024-04-24T21:08:42.875Z,49.13
2024-04-24T21:10:34.668Z,49.40
2024-04-24T21:12:25.765Z,49.13
2024-04-24T21:14:17.126Z,49.16
2024-04-24T21:16:11.254Z,49.44
2024-04-24T21:18:02.423Z,49.88
2024-04-24T21:19:53.899Z,50.26
2024-04-24T21:21:49.427Z,50.48
2024-04-24T21:23:41.568Z,50.53
2024-04-24T21:25:35.213Z,50.73
2024-04-24T21:27:26.522Z,50.70
2024-04-24T21:29:17.525Z,50.82
2024-04-24T21:31:08.860Z,50.55
2024-04-24T21:33:00.334Z,50.63
2024-04-24T21:34:52.043Z,50.63
2024-04-24T21:36:43.338Z,50.60
2024-04-24T21:38:36.172Z,50.70
2024-04-24T21:40:27.728Z,50.98
2024-04-24T21:42:18.944Z,51.30
2024-04-24T21:44:10.283Z,51.29
2024-04-24T21:46:07.298Z,51.03
2024-04-24T21:47:58.826Z,51.15
2024-04-24T21:49:50.101Z,51.06
2024-04-24T21:51:41.509Z,51.00
2024-04-24T21:53:34.099Z,51.63
2024-04-24T21:55:25.818Z,51.86
2024-04-24T21:57:16.984Z,51.79
2024-04-24T21:59:08.606Z,51.58
2024-04-24T22:01:00.317Z,51.42
2024-04-24T22:02:53.542Z,51.11
2024-04-24T22:04:45.289Z,51.50
2024-04-24T22:06:38.665Z,51.13
2024-04-24T22:08:30.946Z,51.12
2024-04-24T22:10:22.164Z,51.45
2024-04-24T22:12:14.182Z,51.80
2024-04-24T22:14:05.650Z,52.01
2024-04-24T22:15:57.068Z,51.69
2024-04-24T22:17:48.615Z,51.54
2024-04-24T22:19:40.012Z,51.48
2024-04-24T22:21:32.675Z,51.55
2024-04-24T22:23:24.139Z,51.64
2024-04-24T22:25:17.452Z,51.79
2024-04-24T22:27:08.501Z,52.15
2024-04-24T22:28:59.742Z,51.90
2024-04-24T22:30:50.782Z,52.14
2024-04-24T22:32:42.292Z,52.27
2024-04-24T22:34:33.315Z,52.68
2024-04-24T22:36:24.347Z,53.11
2024-04-24T22:38:16.169Z,53.31
2024-04-24T22:40:07.915Z,53.21
2024-04-24T22:41:58.922Z,53.01
2024-04-24T22:43:49.937Z,53.20
2024-04-24T22:45:40.772Z,53.32
2024-04-24T22:47:32.077Z,53.19
2024-04-24T22:49:23.219Z,53.16
2024-04-24T22:51:14.389Z,52.82
2024-04-24T22:53:05.228Z,52.84
2024-04-24T22:54:56.367Z,52.80
2024-04-24T22:56:47.392Z,52.54
2024-04-24T22:58:38.604Z,52.62
2024-04-24T23:00:29.668Z,52.47
2024-04-24T23:02:21.003Z,53.33
2024-04-24T23:04:11.986Z,53.30
2024-04-24T23:06:03.134Z,53.38
2024-04-24T23:07:53.940Z,53.71
2024-04-24T23:09:44.844Z,54.00
2024-04-24T23:11:35.934Z,54.12
2024-04-24T23:13:27.013Z,54.17
2024-04-24T23:15:18.233Z,54.23
2024-04-24T23:17:09.351Z,54.51
2024-04-24T23:19:00.348Z,54.75
2024-04-24T23:20:51.481Z,55.01
2024-04-24T23:22:42.398Z,54.93
2024-04-24T23:24:33.418Z,54.85
2024-04-24T23:26:24.476Z,54.82
2024-04-24T23:28:15.404Z,54.61
2024-04-24T23:30:06.867Z,54.67
2024-04-24T23:31:58.435Z,54.88
2024-04-24T23:33:49.593Z,54.66
2024-04-24T23:35:40.792Z,54.45
2024-04-24T23:37:31.722Z,54.67
2024-04-24T23:39:22.853Z,54.87
2024-04-24T23:41:16.398Z,55.16
2024-04-24T23:43:07.543Z,55.37
2024-04-24T23:44:59.326Z,55.44
2024-04-24T23:46:50.516Z,56.06
2024-04-24T23:48:41.741Z,55.99
2024-04-24T23:50:32.926Z,55.96
2024-04-24T23:52:24.000Z,56.03
2024-04-24T23:54:14.999Z,55.75
2024-04-24T23:56:06.782Z,55.41
2024-04-24T23:57:58.208Z,55.28
2024-04-24T23:59:49.662Z,55.28
